Time;durP1;ratioP1;P1;durP2;ratioP2;P2;SDS_P1;SDS_P2;PMS_P1;PMS_P2;Temp;Humidity;BMP_temperature;BMP_pressure;BME280_temperature;BME280_humidity;BME280_pressure;Samples;Min_cycle;Max_cycle;Signal;HPM_P1;HPM_P2
2022/06/29 00:00:24;;;;;;;24.85;22.27;;;;;;;18.55;85.40;99153.91;2211206;81;20984;-78
2022/06/29 00:03:24;;;;;;;25.08;22.58;;;;;;;18.52;84.88;99158.38;2211354;81;20999;-78
2022/06/29 00:06:25;;;;;;;25.92;22.55;;;;;;;18.53;85.54;99161.44;2211395;81;21032;-78
2022/06/29 00:09:25;;;;;;;26.07;23.55;;;;;;;18.54;86.29;99171.12;2211107;81;20941;-78
2022/06/29 00:12:25;;;;;;;25.45;22.62;;;;;;;18.57;86.75;99173.27;2211200;81;20952;-78
2022/06/29 00:15:26;;;;;;;24.35;21.95;;;;;;;18.60;86.50;99171.02;2211417;81;20952;-78
2022/06/29 00:18:26;;;;;;;24.87;22.15;;;;;;;18.58;86.10;99160.92;2210722;81;20980;-78
2022/06/29 00:21:27;;;;;;;25.57;22.05;;;;;;;18.61;86.56;99160.45;2211514;81;20948;-78
2022/06/29 00:24:27;;;;;;;26.65;23.92;;;;;;;18.67;86.83;99162.13;2211208;81;21020;-78
2022/06/29 00:27:27;;;;;;;25.52;23.32;;;;;;;18.69;86.50;99152.41;2211047;81;21314;-77
2022/06/29 00:30:28;;;;;;;25.37;22.87;;;;;;;18.72;86.52;99147.94;2210917;81;20987;-78
2022/06/29 00:33:28;;;;;;;26.87;23.25;;;;;;;18.76;86.55;99146.12;2210694;81;20944;-77
2022/06/29 00:36:29;;;;;;;25.72;23.12;;;;;;;18.81;87.36;99146.91;2211276;81;20944;-80
2022/06/29 00:39:29;;;;;;;26.35;23.77;;;;;;;18.81;87.20;99141.63;2211555;81;20987;-78
2022/06/29 00:42:30;;;;;;;26.45;23.85;;;;;;;18.80;87.05;99137.69;2210984;81;20964;-78
2022/06/29 00:45:30;;;;;;;26.90;24.23;;;;;;;18.80;87.21;99142.52;2211023;81;21320;-78
2022/06/29 00:48:31;;;;;;;28.55;25.82;;;;;;;18.83;87.55;99144.25;2210550;81;21056;-78
2022/06/29 00:51:31;;;;;;;27.98;25.17;;;;;;;18.87;88.18;99148.14;2210754;81;20981;-78
2022/06/29 00:54:31;;;;;;;29.15;26.23;;;;;;;18.90;88.15;99154.70;2210921;81;20960;-78
2022/06/29 00:57:32;;;;;;;27.00;24.27;;;;;;;18.94;88.21;99149.78;2210928;81;21352;-78
2022/06/29 01:00:32;;;;;;;24.77;22.48;;;;;;;18.99;88.33;99151.02;2210583;81;21023;-78
2022/06/29 01:03:32;;;;;;;37.88;34.05;;;;;;;19.03;88.03;99153.59;2211534;81;20993;-78
2022/06/29 01:06:33;;;;;;;31.12;28.00;;;;;;;19.04;88.04;99148.72;2211185;81;21014;-79
2022/06/29 01:09:33;;;;;;;41.02;27.25;;;;;;;19.07;87.92;99159.70;2211303;81;20916;-78
2022/06/29 01:12:34;;;;;;;31.05;27.87;;;;;;;19.12;88.49;99160.97;2211306;81;21333;-77
2022/06/29 01:15:34;;;;;;;31.30;27.50;;;;;;;19.15;89.11;99164.89;2211086;81;20941;-77
2022/06/29 01:18:39;;;;;;;30.23;27.22;;;;;;;19.17;89.04;99163.09;2203793;81;20993;-78
2022/06/29 01:21:37;;;;;;;30.00;27.00;;;;;;;19.20;89.19;99157.74;2170352;81;21040;-78
2022/06/29 01:24:37;;;;;;;30.35;27.13;;;;;;;19.21;89.32;99143.16;2192367;81;20929;-78
2022/06/29 01:27:38;;;;;;;28.92;26.23;;;;;;;19.23;89.24;99136.06;2192832;81;20933;-79
2022/06/29 01:30:38;;;;;;;31.07;27.90;;;;;;;19.23;88.97;99140.48;2192166;81;21009;-78
2022/06/29 01:33:38;;;;;;;30.52;27.48;;;;;;;19.25;89.55;99141.33;2192100;81;21013;-78
2022/06/29 01:36:39;;;;;;;31.30;28.05;;;;;;;19.27;89.69;99132.91;2191219;81;21352;-78
2022/06/29 01:39:39;;;;;;;31.75;28.60;;;;;;;19.28;89.91;99130.69;2192084;81;20992;-79
2022/06/29 01:42:40;;;;;;;121.42;35.85;;;;;;;19.28;90.04;99124.07;2192151;81;20988;-79
2022/06/29 01:45:40;;;;;;;32.67;27.05;;;;;;;19.28;89.84;99122.30;2192061;81;20973;-78
2022/06/29 01:48:40;;;;;;;33.88;29.95;;;;;;;19.29;90.26;99130.66;2192117;81;20965;-78
2022/06/29 01:51:41;;;;;;;35.33;31.60;;;;;;;19.28;90.35;99132.88;2191921;81;21298;-78
2022/06/29 01:54:41;;;;;;;32.73;29.27;;;;;;;19.27;90.64;99124.52;2191784;81;20932;-78
2022/06/29 01:57:42;;;;;;;35.88;30.85;;;;;;;19.27;90.42;99120.55;2192038;81;20945;-79
2022/06/29 02:00:43;;;;;;;37.88;30.35;;;;;;;19.28;90.81;99118.78;2191952;81;21008;-78
2022/06/29 02:03:42;;;;;;;366.08;55.63;;;;;;;19.28;91.32;99114.81;2192250;81;20925;-79
2022/06/29 02:06:43;;;;;;;32.75;29.35;;;;;;;19.27;90.80;99114.39;2192119;81;21473;-79
2022/06/29 02:09:43;;;;;;;64.53;27.55;;;;;;;19.25;90.65;99103.83;2192075;81;20957;-80
2022/06/29 02:12:44;;;;;;;31.90;28.62;;;;;;;19.23;90.86;99099.02;2191911;81;21000;-80
2022/06/29 02:15:44;;;;;;;33.48;27.58;;;;;;;19.25;90.97;99095.02;2192076;81;20965;-79
2022/06/29 02:18:44;;;;;;;28.70;25.80;;;;;;;19.23;90.95;99084.46;2197835;81;20964;-79
2022/06/29 02:21:45;;;;;;;35.40;30.62;;;;;;;19.21;90.75;99088.04;2210983;81;20937;-78
2022/06/29 02:24:45;;;;;;;32.98;29.32;;;;;;;19.17;91.38;99095.16;2210576;81;20984;-79
2022/06/29 02:27:46;;;;;;;33.25;29.67;;;;;;;19.20;91.59;99094.23;2210554;81;21027;-81
2022/06/29 02:37:23;;;;;;;32.33;28.83;;;;;;;19.17;91.52;99090.32;2210846;81;20952;-79
2022/06/29 02:40:24;;;;;;;35.45;31.52;;;;;;;19.17;91.40;99091.64;2210542;81;21473;-79
2022/06/29 02:43:24;;;;;;;33.55;29.10;;;;;;;19.21;91.69;99082.75;2210685;81;20916;-79
2022/06/29 02:46:25;;;;;;;31.10;28.15;;;;;;;19.20;91.19;99087.62;2210977;81;21047;-79
2022/06/29 02:49:25;;;;;;;48.10;31.73;;;;;;;19.18;91.15;99088.09;2211173;81;20980;-80
2022/06/29 02:52:25;;;;;;;37.10;31.55;;;;;;;19.20;91.56;99086.30;2211569;81;20960;-80
2022/06/29 02:55:26;;;;;;;60.52;30.60;;;;;;;19.22;91.58;99077.42;2211600;81;20944;-80
2022/06/29 02:58:26;;;;;;;32.78;29.45;;;;;;;19.24;91.39;99070.78;2211098;81;20952;-79
2022/06/29 03:01:27;;;;;;;36.25;31.87;;;;;;;19.24;91.32;99067.68;2210604;81;20989;-78
2022/06/29 03:04:27;;;;;;;34.27;30.88;;;;;;;19.29;91.45;99058.33;2210882;81;21387;-80
2022/06/29 03:07:27;;;;;;;36.45;32.70;;;;;;;19.30;91.50;99054.78;2211107;81;21301;-79
2022/06/29 03:10:28;;;;;;;38.40;34.25;;;;;;;19.33;91.70;99053.39;2211108;81;20909;-79
2022/06/29 03:13:28;;;;;;;40.73;35.92;;;;;;;19.37;91.81;99053.75;2211053;81;21000;-78
2022/06/29 03:16:29;;;;;;;40.10;36.00;;;;;;;19.43;91.66;99062.02;2210936;81;20944;-80
2022/06/29 03:19:29;;;;;;;38.90;34.55;;;;;;;19.50;91.61;99051.73;2210521;81;21456;-80
2022/06/29 03:22:29;;;;;;;41.83;35.88;;;;;;;19.54;91.20;99050.79;2210316;81;20976;-80
2022/06/29 03:25:30;;;;;;;41.48;36.90;;;;;;;19.60;91.18;99051.53;2208947;81;21372;-81
2022/06/29 03:28:30;;;;;;;40.92;36.58;;;;;;;19.63;91.11;99052.79;2209258;80;21050;-80
2022/06/29 03:31:31;;;;;;;41.60;37.10;;;;;;;19.72;90.86;99056.56;2210126;81;20992;-79
2022/06/29 03:34:31;;;;;;;41.63;36.95;;;;;;;19.79;90.58;99049.36;2209971;81;20948;-78
2022/06/29 03:37:31;;;;;;;38.02;33.88;;;;;;;19.85;90.35;99049.67;2210099;80;20905;-78
2022/06/29 03:40:32;;;;;;;36.65;31.45;;;;;;;19.91;90.14;99047.76;2210037;81;20909;-80
2022/06/29 03:43:32;;;;;;;44.67;36.75;;;;;;;19.96;89.67;99055.18;2210507;81;20941;-79
2022/06/29 03:46:33;;;;;;;55.20;36.13;;;;;;;20.01;89.51;99047.13;2210252;81;20988;-79
2022/06/29 03:49:33;;;;;;;55.60;33.83;;;;;;;20.07;89.31;99046.98;2209703;81;20929;-79
2022/06/29 03:52:33;;;;;;;71.85;37.65;;;;;;;20.11;89.14;99042.03;2210118;81;20940;-79
2022/06/29 03:55:34;;;;;;;42.80;36.23;;;;;;;20.09;89.04;99042.52;2210192;81;20929;-79
2022/06/29 03:58:34;;;;;;;48.58;35.40;;;;;;;20.14;89.10;99039.77;2209872;81;21348;-78
2022/06/29 04:01:35;;;;;;;38.10;34.05;;;;;;;20.13;88.96;99043.32;2210639;81;20976;-79
2022/06/29 04:04:35;;;;;;;40.60;34.73;;;;;;;20.15;89.13;99035.75;2211171;81;20983;-79
2022/06/29 04:07:36;;;;;;;38.78;33.25;;;;;;;20.16;88.88;99036.62;2210882;81;20937;-79
2022/06/29 04:10:36;;;;;;;42.05;36.95;;;;;;;20.15;89.46;99037.08;2210602;81;20979;-79
2022/06/29 04:13:36;;;;;;;41.77;37.20;;;;;;;20.14;89.03;99034.02;2210415;81;20928;-78
2022/06/29 04:16:37;;;;;;;43.13;36.38;;;;;;;20.11;88.74;99031.43;2210863;81;21269;-78
2022/06/29 04:19:37;;;;;;;38.95;34.45;;;;;;;20.08;88.81;99027.53;2210807;81;20984;-79
2022/06/29 04:22:37;;;;;;;41.83;36.93;;;;;;;20.02;89.24;99029.88;2211027;81;21357;-79
2022/06/29 04:25:38;;;;;;;40.25;33.67;;;;;;;20.08;88.82;99026.66;2211606;81;21394;-79
2022/06/29 04:28:41;;;;;;;38.55;34.03;;;;;;;20.07;88.76;99016.52;2210552;81;20968;-80
2022/06/29 04:31:41;;;;;;;68.75;37.67;;;;;;;20.16;88.66;99021.59;2188599;81;20996;-80
2022/06/29 04:34:41;;;;;;;37.58;33.25;;;;;;;20.26;88.60;99019.14;2211193;81;20963;-80
2022/06/29 04:37:41;;;;;;;41.00;32.78;;;;;;;20.33;88.01;99018.08;2210716;81;20935;-79
2022/06/29 04:40:42;;;;;;;33.65;30.27;;;;;;;20.38;88.04;99029.02;2211081;81;21011;-80
2022/06/29 04:43:42;;;;;;;34.53;30.82;;;;;;;20.44;87.93;99029.77;2208854;81;21019;-80
2022/06/29 04:46:45;;;;;;;35.10;31.50;;;;;;;20.55;87.70;99033.48;2211830;81;20967;-82
2022/06/29 04:49:45;;;;;;;31.65;28.17;;;;;;;20.65;86.85;99025.25;2189784;81;20928;-81
2022/06/29 04:52:45;;;;;;;30.72;27.42;;;;;;;20.80;86.75;99030.61;2211261;81;21405;-81
2022/06/29 04:55:46;;;;;;;30.88;27.65;;;;;;;20.88;85.60;99037.94;2209767;81;20956;-79
2022/06/29 04:58:46;;;;;;;32.63;28.55;;;;;;;20.91;84.84;99033.87;2209429;81;20963;-78
2022/06/29 05:01:48;;;;;;;32.63;28.90;;;;;;;20.95;84.46;99032.88;2208172;81;21011;-79
2022/06/29 05:04:48;;;;;;;34.75;30.70;;;;;;;20.97;83.98;99041.67;2208228;81;20956;-79
2022/06/29 05:07:47;;;;;;;30.45;26.93;;;;;;;20.99;83.84;99046.94;2209764;81;20916;-78
2022/06/29 05:10:48;;;;;;;32.42;28.42;;;;;;;21.01;83.99;99038.94;2211550;80;21016;-79
2022/06/29 05:13:48;;;;;;;28.17;25.57;;;;;;;21.14;83.67;99045.19;2209695;81;21349;-80
2022/06/29 05:16:49;;;;;;;29.92;26.70;;;;;;;21.19;83.15;99049.05;2209441;80;20909;-80
2022/06/29 05:19:49;;;;;;;34.92;31.27;;;;;;;21.27;83.36;99050.61;2209272;80;21016;-79
2022/06/29 05:22:49;;;;;;;33.63;29.87;;;;;;;21.40;83.03;99053.78;2209092;81;20920;-79
2022/06/29 05:25:50;;;;;;;40.65;36.30;;;;;;;21.49;82.30;99049.99;2208998;81;20952;-79
2022/06/29 05:28:51;;;;;;;43.17;38.30;;;;;;;21.69;81.68;99052.09;2209005;81;20952;-80
2022/06/29 05:31:51;;;;;;;38.80;34.58;;;;;;;21.59;80.72;99051.47;2208200;81;21003;-80
2022/06/29 05:34:51;;;;;;;37.65;33.50;;;;;;;21.50;81.04;99047.30;2208637;81;20936;-79
2022/06/29 05:37:52;;;;;;;38.28;34.30;;;;;;;21.49;80.92;99052.19;2208847;81;21301;-79
2022/06/29 05:40:57;;;;;;;36.45;32.60;;;;;;;21.58;80.46;99047.06;2209149;81;21027;-79
2022/06/29 05:43:55;;;;;;;36.03;32.33;;;;;;;21.75;80.36;99050.13;2187976;81;20912;-78
2022/06/29 05:46:55;;;;;;;35.65;32.03;;;;;;;21.85;79.54;99043.61;2209460;80;21024;-79
2022/06/29 05:50:00;;;;;;;31.40;28.10;;;;;;;21.80;79.13;99043.34;2209079;81;20933;-81
2022/06/29 05:52:59;;;;;;;35.17;28.10;;;;;;;21.94;79.26;99047.78;2196638;81;20933;-81
2022/06/29 05:55:59;;;;;;;30.92;27.73;;;;;;;22.12;78.65;99052.55;2196326;81;20986;-80
2022/06/29 05:59:00;;;;;;;30.02;26.87;;;;;;;22.15;78.37;99051.13;2209560;81;21027;-81
2022/06/29 06:02:00;;;;;;;29.07;25.92;;;;;;;22.40;78.64;99047.67;2209435;81;21003;-81
2022/06/29 06:05:00;;;;;;;29.35;26.52;;;;;;;22.56;77.16;99040.50;2207835;81;21332;-80
2022/06/29 06:08:01;;;;;;;28.75;26.00;;;;;;;22.55;77.15;99043.21;2209623;80;20960;-81
2022/06/29 06:11:01;;;;;;;36.53;24.80;;;;;;;22.62;76.94;99046.08;2208574;81;21000;-81
2022/06/29 06:14:02;;;;;;;27.58;24.90;;;;;;;22.75;76.27;99047.86;2208292;81;20908;-81
2022/06/29 06:17:02;;;;;;;28.85;26.05;;;;;;;22.87;75.80;99049.67;2209657;81;20959;-80
2022/06/29 06:20:03;;;;;;;27.30;24.60;;;;;;;23.03;74.67;99048.67;2206056;81;21028;-81
2022/06/29 06:23:03;;;;;;;26.48;23.87;;;;;;;23.27;74.03;99043.39;2192540;81;20909;-82
2022/06/29 06:26:03;;;;;;;27.42;24.92;;;;;;;23.55;73.89;99049.50;2192023;81;20980;-81
2022/06/29 06:29:04;;;;;;;32.25;28.85;;;;;;;23.72;72.73;99040.87;2191487;81;20964;-83
2022/06/29 06:32:04;;;;;;;29.85;26.87;;;;;;;24.01;72.54;99040.60;2190815;81;21047;-84
2022/06/29 06:35:04;;;;;;;32.05;28.80;;;;;;;24.38;70.86;99044.52;2192138;81;20929;-84
2022/06/29 06:38:05;;;;;;;28.70;25.90;;;;;;;24.18;69.20;99042.59;2191868;81;20981;-84
2022/06/29 06:41:24;;;;;;;29.40;23.40;;;;;;;24.13;70.06;99038.78;2191648;81;21531;-85
2022/06/29 06:44:23;;;;;;;25.17;22.55;;;;;;;24.34;68.27;99042.91;2191167;81;20909;-84
2022/06/29 06:47:24;;;;;;;51.83;40.70;;;;;;;24.34;68.87;99034.91;2191730;81;20997;-83
2022/06/29 06:50:24;;;;;;;24.80;22.40;;;;;;;24.47;64.23;99033.47;2190593;81;20995;-84
2022/06/29 06:53:35;;;;;;;25.02;22.60;;;;;;;24.75;66.13;99033.17;2191192;81;20937;-86
2022/06/29 06:56:29;;;;;;;24.12;21.75;;;;;;;24.73;66.14;99041.72;2149035;82;20998;-83
2022/06/29 06:59:30;;;;;;;24.52;22.17;;;;;;;24.64;66.46;99042.11;2182379;81;20980;-83
2022/06/29 07:02:30;;;;;;;24.40;22.07;;;;;;;24.64;66.80;99036.30;2190621;81;21007;-83
2022/06/29 07:05:30;;;;;;;23.42;21.52;;;;;;;24.82;67.27;99037.78;2191226;81;20980;-80
2022/06/29 07:08:31;;;;;;;37.08;22.73;;;;;;;24.94;66.51;99042.59;2190288;81;21376;-81
2022/06/29 07:11:31;;;;;;;23.47;21.40;;;;;;;25.35;66.61;99043.50;2190605;81;20938;-81
2022/06/29 07:14:32;;;;;;;21.60;19.67;;;;;;;25.47;65.80;99046.09;2191658;81;21518;-82
2022/06/29 07:17:32;;;;;;;22.77;20.52;;;;;;;25.84;65.44;99037.27;2191674;81;20963;-81
2022/06/29 07:20:33;;;;;;;23.30;21.20;;;;;;;26.15;63.70;99027.34;2195963;81;21007;-80
2022/06/29 07:23:33;;;;;;;22.55;20.75;;;;;;;26.17;63.18;99024.98;2198909;81;20901;-82
2022/06/29 07:26:33;;;;;;;23.52;21.15;;;;;;;26.20;62.79;99022.16;2201423;81;21008;-79
2022/06/29 07:29:34;;;;;;;23.18;20.72;;;;;;;26.18;63.01;99014.68;2209825;81;21320;-80
2022/06/29 07:32:34;;;;;;;20.77;18.98;;;;;;;26.04;61.98;99009.14;2209644;81;21072;-80
2022/06/29 07:35:34;;;;;;;21.25;18.52;;;;;;;26.32;62.21;99007.31;2209877;81;20956;-81
2022/06/29 07:38:35;;;;;;;24.75;22.45;;;;;;;26.74;62.27;99002.97;2210882;81;20936;-80
2022/06/29 07:41:38;;;;;;;21.65;19.67;;;;;;;27.22;60.16;99000.94;2210060;81;20928;-80
2022/06/29 07:44:39;;;;;;;;;;;;;;;27.16;60.54;98997.24;2212801;81;20972;-81
2022/06/29 07:47:40;;;;;;;17.95;16.32;;;;;;;27.24;59.13;98996.36;2210573;80;20136;-81
2022/06/29 07:50:39;;;;;;;17.82;16.12;;;;;;;27.15;59.76;98998.67;2210264;81;20987;-78
2022/06/29 07:53:40;;;;;;;19.07;17.48;;;;;;;27.53;59.38;99001.48;2209033;81;20992;-82
2022/06/29 07:56:40;;;;;;;19.65;17.85;;;;;;;27.81;57.88;99002.23;2210096;81;20924;-80
2022/06/29 07:59:41;;;;;;;18.75;17.25;;;;;;;27.73;58.10;98999.55;2210484;81;21031;-81
2022/06/29 08:02:41;;;;;;;18.75;17.20;;;;;;;27.95;58.14;98999.25;2210116;81;20948;-79
2022/06/29 08:05:42;;;;;;;20.17;18.37;;;;;;;27.78;56.96;98998.85;2209930;81;21015;-80
2022/06/29 08:08:43;;;;;;;19.17;17.57;;;;;;;27.58;57.47;98998.55;2210025;81;20977;-80
2022/06/29 08:11:43;;;;;;;20.68;18.87;;;;;;;27.43;57.96;98996.70;2209986;81;20893;-80
2022/06/29 08:14:43;;;;;;;22.62;18.40;;;;;;;27.28;57.58;99001.08;2210649;81;21340;-79
2022/06/29 08:17:43;;;;;;;20.80;18.85;;;;;;;27.02;58.37;98999.78;2210117;80;20925;-81
2022/06/29 08:20:44;;;;;;;19.95;18.20;;;;;;;26.89;58.07;98998.67;2201762;80;21352;-79
2022/06/29 08:23:44;;;;;;;19.02;17.50;;;;;;;27.01;58.39;98996.72;2196765;81;20960;-79
2022/06/29 08:26:45;;;;;;;19.27;17.62;;;;;;;27.13;58.59;98990.70;2196773;81;20964;-81
2022/06/29 08:29:45;;;;;;;18.42;16.82;;;;;;;27.31;58.52;98991.53;2197012;81;20996;-80
2022/06/29 08:32:46;;;;;;;19.17;17.32;;;;;;;27.76;57.78;98988.69;2195770;80;21015;-79
2022/06/29 08:35:46;;;;;;;20.68;18.82;;;;;;;28.32;56.74;98989.98;2195352;81;20960;-80
2022/06/29 08:38:47;;;;;;;17.75;16.15;;;;;;;28.55;54.79;98981.44;2195326;80;21372;-79
2022/06/29 08:41:47;;;;;;;18.92;17.12;;;;;;;28.41;55.23;98967.48;2196587;81;21011;-79
2022/06/29 08:44:49;;;;;;;20.97;16.95;;;;;;;28.58;55.05;98965.63;2195130;81;21445;-79
2022/06/29 08:47:48;;;;;;;20.02;18.07;;;;;;;28.30;55.14;98975.78;2195030;81;21371;-79
2022/06/29 08:50:49;;;;;;;17.32;15.85;;;;;;;28.04;55.00;98979.94;2196644;81;21329;-79
2022/06/29 08:53:52;;;;;;;19.73;17.92;;;;;;;28.07;55.93;98968.56;2196080;80;21019;-80
2022/06/29 08:56:53;;;;;;;17.30;15.80;;;;;;;28.48;55.16;98972.88;2196470;81;20957;-79
2022/06/29 08:59:53;;;;;;;18.92;16.82;;;;;;;28.69;54.85;98977.97;2196269;81;20913;-79
2022/06/29 09:02:54;;;;;;;16.45;15.15;;;;;;;28.99;53.51;98972.59;2196174;81;21558;-79
2022/06/29 09:05:57;;;;;;;16.37;15.08;;;;;;;29.08;54.17;98975.58;2195615;81;21648;-81
2022/06/29 09:08:58;;;;;;;16.30;14.80;;;;;;;29.33;53.36;98978.95;2200853;81;21995;-79
2022/06/29 09:11:58;;;;;;;15.70;14.40;;;;;;;29.63;53.34;98978.90;2196454;80;20960;-80
2022/06/29 09:14:58;;;;;;;16.30;14.83;;;;;;;29.84;51.99;98985.20;2196000;81;21317;-79
2022/06/29 09:17:59;;;;;;;16.12;14.55;;;;;;;29.55;51.40;98983.91;2197104;81;20932;-78
2022/06/29 09:20:59;;;;;;;15.83;14.33;;;;;;;29.41;52.01;98983.84;2205289;81;20972;-80
2022/06/29 09:24:00;;;;;;;15.45;14.07;;;;;;;29.71;51.40;98986.48;2210036;81;20944;-80
2022/06/29 09:27:00;;;;;;;15.32;13.93;;;;;;;29.91;51.16;98975.77;2209575;81;20975;-79
2022/06/29 09:30:00;;;;;;;17.55;14.75;;;;;;;30.03;51.28;98977.70;2209014;80;20896;-79
2022/06/29 09:33:01;;;;;;;16.20;14.50;;;;;;;30.18;50.33;98973.99;2208868;81;21387;-80
2022/06/29 09:36:01;;;;;;;15.58;14.20;;;;;;;30.12;50.07;98983.82;2209336;81;20909;-80
2022/06/29 09:39:02;;;;;;;18.17;15.72;;;;;;;30.09;50.31;98974.60;2209399;81;20909;-79
2022/06/29 09:42:02;;;;;;;17.10;15.50;;;;;;;30.13;49.90;98980.16;2209354;81;20957;-78
2022/06/29 09:45:03;;;;;;;16.73;15.32;;;;;;;29.93;49.10;98973.84;2208246;81;20952;-79
2022/06/29 09:48:03;;;;;;;16.35;14.83;;;;;;;29.56;50.27;98966.80;2207567;81;21015;-79
2022/06/29 09:54:22;;;;;;;16.60;14.70;;;;;;;29.55;50.96;98946.25;2208553;81;20937;-78
2022/06/29 09:57:23;;;;;;;15.72;14.33;;;;;;;29.33;51.31;98936.41;2208474;81;21390;-79
2022/06/29 10:03:42;;;;;;;15.90;14.65;;;;;;;29.61;51.77;98939.13;2209623;81;21035;-78
2022/06/29 10:06:42;;;;;;;15.55;13.98;;;;;;;29.81;51.95;98937.84;2209803;81;21288;-77
2022/06/29 10:09:43;;;;;;;16.57;15.03;;;;;;;29.61;51.55;98933.75;2208816;81;20991;-78
2022/06/29 10:16:02;;;;;;;16.20;14.68;;;;;;;29.74;51.58;98930.65;2208412;81;21373;-78
2022/06/29 10:19:02;;;;;;;15.53;13.98;;;;;;;30.10;50.47;98933.27;2207458;81;20920;-78
2022/06/29 10:22:03;;;;;;;16.50;14.85;;;;;;;30.10;50.47;98933.27;2208366;80;21026;-79
2022/06/29 10:25:04;;;;;;;16.02;14.73;;;;;;;30.25;49.36;98932.72;2210278;81;20959;-80
2022/06/29 10:28:04;;;;;;;16.17;14.68;;;;;;;30.09;50.40;98924.80;2210304;81;20936;-80
2022/06/29 10:31:04;;;;;;;15.13;13.72;;;;;;;29.98;50.25;98925.48;2210347;81;20964;-79
2022/06/29 10:34:04;;;;;;;14.70;13.40;;;;;;;30.19;50.33;98933.13;2210141;81;20980;-80
2022/06/29 10:37:05;;;;;;;14.68;13.48;;;;;;;30.38;49.98;98933.65;2210213;81;20960;-81
2022/06/29 10:40:05;;;;;;;13.90;12.50;;;;;;;30.45;49.69;98923.33;2210122;80;20992;-81
2022/06/29 10:43:09;;;;;;;14.93;13.62;;;;;;;30.73;49.24;98923.19;2210834;81;20933;-80
2022/06/29 10:46:09;;;;;;;14.70;13.58;;;;;;;30.79;48.94;98916.02;2210454;81;21052;-81
2022/06/29 10:49:09;;;;;;;17.27;15.72;;;;;;;30.70;48.40;98926.09;2210677;81;20980;-80
2022/06/29 10:52:10;;;;;;;18.12;16.25;;;;;;;30.33;49.27;98932.58;2210602;81;20948;-81
2022/06/29 10:55:11;;;;;;;18.07;16.48;;;;;;;30.05;49.88;98937.61;2209913;80;20983;-80
2022/06/29 10:58:11;;;;;;;17.40;15.70;;;;;;;29.76;49.76;98935.45;2209597;81;21774;-83
2022/06/29 11:01:13;;;;;;;15.53;14.15;;;;;;;29.66;51.00;98936.14;2210025;81;20964;-82
2022/06/29 11:04:13;;;;;;;16.30;14.93;;;;;;;29.75;50.96;98934.20;2189629;81;21015;-81
2022/06/29 11:13:52;;;;;;;28.92;14.40;;;;;;;31.09;48.62;98917.53;2208477;81;20956;-80
2022/06/29 11:16:53;;;;;;;15.85;14.40;;;;;;;31.34;48.31;98916.22;2209873;81;20956;-80
2022/06/29 11:19:53;;;;;;;14.35;13.05;;;;;;;31.39;47.52;98914.53;2209073;80;21334;-79
2022/06/29 11:22:53;;;;;;;14.10;12.80;;;;;;;30.95;47.27;98907.23;2208894;81;20886;-78
2022/06/29 11:25:54;;;;;;;14.55;13.00;;;;;;;30.48;48.51;98899.73;2208896;81;20952;-78
2022/06/29 11:28:57;;;;;;;19.30;13.25;;;;;;;30.31;48.96;98900.86;2209696;80;20959;-80
2022/06/29 11:31:55;;;;;;;15.43;13.85;;;;;;;30.52;49.43;98903.95;2210135;81;20991;-78
2022/06/29 11:34:55;;;;;;;12.93;11.83;;;;;;;30.88;48.84;98901.91;2209825;81;20956;-79
2022/06/29 11:38:01;;;;;;;12.30;11.40;;;;;;;31.12;48.23;98892.56;2208844;81;20945;-81
2022/06/29 11:41:02;;;;;;;13.72;12.58;;;;;;;31.49;47.92;98893.53;2208364;81;20925;-79
2022/06/29 11:44:02;;;;;;;13.93;11.88;;;;;;;31.81;46.50;98878.18;2208713;81;20960;-79
2022/06/29 11:47:03;;;;;;;11.78;10.88;;;;;;;31.75;47.45;98872.75;2209164;81;20956;-81
2022/06/29 11:50:03;;;;;;;11.80;10.90;;;;;;;31.59;47.39;98882.44;2209392;80;20948;-80
2022/06/29 11:53:04;;;;;;;13.28;11.75;;;;;;;31.58;47.32;98877.16;2209091;81;21324;-80
2022/06/29 11:56:04;;;;;;;13.00;11.97;;;;;;;31.58;46.66;98873.97;2208122;81;20943;-82
2022/06/29 11:59:05;;;;;;;43.33;14.73;;;;;;;31.21;46.46;98872.20;2209743;80;20930;-79
2022/06/29 12:02:05;;;;;;;15.78;11.63;;;;;;;30.91;47.81;98879.27;2209693;81;20992;-81
2022/06/29 12:05:05;;;;;;;12.13;10.90;;;;;;;30.71;48.30;98877.97;2209806;81;21522;-81
2022/06/29 12:08:06;;;;;;;11.18;9.85;;;;;;;30.88;48.85;98870.91;2207968;81;20940;-80
2022/06/29 12:11:06;;;;;;;20.35;10.98;;;;;;;31.25;48.61;98856.20;2208132;81;20944;-82
2022/06/29 12:14:07;;;;;;;13.32;11.68;;;;;;;31.81;47.72;98853.89;2209296;81;20970;-80
2022/06/29 12:17:07;;;;;;;13.18;11.95;;;;;;;32.43;45.48;98859.10;2209304;81;20944;-81
2022/06/29 12:20:07;;;;;;;15.88;11.75;;;;;;;32.43;45.48;98859.10;2208920;80;20992;-81
2022/06/29 12:23:08;;;;;;;12.10;11.10;;;;;;;32.18;45.80;98859.61;2208315;81;20960;-82
2022/06/29 12:26:09;;;;;;;12.07;11.10;;;;;;;31.98;46.28;98859.73;2207215;81;21035;-81
2022/06/29 12:29:09;;;;;;;12.95;11.75;;;;;;;31.87;46.12;98855.64;2208527;81;20920;-84
2022/06/29 12:32:09;;;;;;;12.60;11.53;;;;;;;31.97;45.99;98851.76;2208345;81;20980;-81
2022/06/29 12:35:10;;;;;;;17.10;11.33;;;;;;;32.39;45.87;98849.52;2209368;81;20960;-83
2022/06/29 12:38:10;;;;;;;12.50;11.45;;;;;;;32.80;45.54;98844.45;2208760;81;20944;-82
2022/06/29 12:41:10;;;;;;;12.23;11.08;;;;;;;33.10;44.33;98836.27;2209088;81;20897;-80
2022/06/29 12:44:11;;;;;;;13.22;12.18;;;;;;;33.16;43.72;98835.27;2210291;81;21012;-80
2022/06/29 12:47:11;;;;;;;13.55;12.23;;;;;;;32.96;44.33;98830.61;2209667;81;21379;-83
2022/06/29 12:50:14;;;;;;;25.27;12.40;;;;;;;32.68;44.50;98825.13;2208962;81;20936;-80
2022/06/29 12:53:15;;;;;;;12.03;11.10;;;;;;;32.62;45.16;98818.37;2208300;81;20925;-80
2022/06/29 12:56:16;;;;;;;13.50;12.40;;;;;;;32.62;45.30;98807.55;2208555;81;20936;-81
2022/06/29 12:59:16;;;;;;;13.90;12.60;;;;;;;32.58;45.76;98817.38;2209945;81;21311;-82
2022/06/29 13:02:21;;;;;;;12.58;11.45;;;;;;;32.55;45.71;98820.32;2209510;81;20983;-80
2022/06/29 13:05:21;;;;;;;13.32;12.23;;;;;;;32.78;45.35;98814.48;2209410;81;20967;-80
2022/06/29 13:08:20;;;;;;;12.47;11.55;;;;;;;32.95;44.69;98807.27;2208585;81;20951;-81
2022/06/29 13:11:23;;;;;;;12.43;10.95;;;;;;;33.21;44.57;98807.36;2208294;81;20953;-81
2022/06/29 13:14:25;;;;;;;79.30;17.35;;;;;;;33.63;44.08;98806.19;2208829;81;20952;-82
2022/06/29 13:17:24;;;;;;;13.18;11.83;;;;;;;33.53;43.86;98807.45;2209757;81;21285;-83
2022/06/29 13:20:25;;;;;;;14.45;11.33;;;;;;;33.63;42.43;98815.66;2209318;80;21387;-77
2022/06/29 13:23:25;;;;;;;12.15;11.15;;;;;;;33.55;43.43;98812.23;2207904;81;20913;-77
2022/06/29 13:26:25;;;;;;;12.70;11.50;;;;;;;33.19;43.82;98813.88;2207780;81;21019;-76
2022/06/29 13:29:26;;;;;;;12.65;11.40;;;;;;;32.81;44.29;98801.58;2207820;80;20920;-76
2022/06/29 13:32:26;;;;;;;12.30;11.20;;;;;;;32.67;44.98;98804.48;2206747;81;21007;-79
2022/06/29 13:35:27;;;;;;;13.80;11.38;;;;;;;32.68;44.04;98809.41;2208436;81;20933;-76
2022/06/29 13:38:27;;;;;;;11.88;11.00;;;;;;;32.50;44.48;98817.98;2207701;81;20952;-76
2022/06/29 13:41:28;;;;;;;12.00;11.00;;;;;;;32.65;44.63;98813.21;2207915;81;20932;-80
2022/06/29 13:44:28;;;;;;;11.85;10.88;;;;;;;32.94;43.84;98810.42;2207804;81;20940;-74
2022/06/29 13:47:29;;;;;;;12.50;11.50;;;;;;;33.15;44.01;98806.51;2208096;81;20928;-77
2022/06/29 13:50:29;;;;;;;13.55;12.20;;;;;;;33.30;43.90;98803.08;2208372;81;20952;-77
2022/06/29 13:53:30;;;;;;;12.53;11.43;;;;;;;33.25;43.11;98803.91;2209108;80;20956;-78
2022/06/29 13:56:30;;;;;;;13.78;12.33;;;;;;;33.05;43.33;98807.38;2209082;81;21324;-80
2022/06/29 13:59:30;;;;;;;12.93;11.83;;;;;;;32.80;43.82;98812.52;2208725;81;20983;-77
2022/06/29 14:02:30;;;;;;;13.20;11.83;;;;;;;32.84;44.76;98814.85;2208499;81;21019;-76
2022/06/29 14:05:31;;;;;;;12.78;11.68;;;;;;;32.97;44.05;98805.30;2208689;81;21480;-82
2022/06/29 14:08:31;;;;;;;12.80;11.53;;;;;;;32.81;43.58;98812.88;2208751;81;21308;-78
2022/06/29 14:11:33;;;;;;;12.25;11.12;;;;;;;32.54;43.66;98805.09;2208804;81;21576;-77